Time;durP1;ratioP1;P1;durP2;ratioP2;P2;SDS_P1;SDS_P2;PMS_P1;PMS_P2;Temp;Humidity;BMP_temperature;BMP_pressure;BME280_temperature;BME280_humidity;BME280_pressure;Samples;Min_cycle;Max_cycle;Signal;HPM_P1;HPM_P2
2022/05/29 00:02:28;;;;;;;3.08;2.05;;;;;;;15.54;51.77;99534.10;1716422;113;26111;-87
2022/05/29 00:05:55;;;;;;;4.60;2.47;;;;;;;15.49;52.00;99541.14;1641464;117;26044;-87
2022/05/29 00:09:42;;;;;;;4.28;2.27;;;;;;;15.45;52.12;99535.05;1676361;117;26118;-88
2022/05/29 00:17:25;;;;;;;5.47;2.40;;;;;;;15.35;52.44;99539.55;1690592;113;26030;-85
2022/05/29 00:21:21;;;;;;;;;;;;;;;;;;;;;
2022/05/29 00:25:03;;;;;;;2.33;1.72;;;;;;;15.24;52.82;99545.77;1658935;116;25893;-86
2022/05/29 00:28:44;;;;;;;4.20;2.30;;;;;;;15.28;52.88;99537.84;1657506;116;25772;-84
2022/05/29 00:32:32;;;;;;;;;;;;;;;;;;;;;
2022/05/29 00:35:54;;;;;;;6.35;2.42;;;;;;;15.24;53.07;99542.69;1675460;115;25790;-84
2022/05/29 00:39:49;;;;;;;5.15;2.90;;;;;;;15.22;53.15;99542.27;1703868;114;25972;-83
2022/05/29 00:48:05;;;;;;;;;;;;;;;15.28;53.17;99545.71;1708639;115;25955;-86
2022/05/29 00:52:22;;;;;;;;;;;;;;;;;;;;;
2022/05/29 00:56:04;;;;;;;2.62;1.60;;;;;;;15.29;53.16;99550.55;1667609;117;25595;-86
2022/05/29 01:03:38;;;;;;;2.75;1.20;;;;;;;15.38;53.07;99550.44;1723050;114;26379;-85
2022/05/29 01:16:15;;;;;;;1.67;1.12;;;;;;;15.35;53.09;99536.92;1733402;111;25895;-84
2022/05/29 01:20:10;;;;;;;2.52;0.95;;;;;;;15.42;53.04;99538.15;1731941;112;26277;-85
2022/05/29 01:23:58;;;;;;;1.50;0.90;;;;;;;15.42;52.90;99536.84;1739198;109;25870;-86
2022/05/29 01:28:22;;;;;;;4.75;0.90;;;;;;;15.45;52.88;99538.13;1750157;110;25859;-85
2022/05/29 01:32:34;;;;;;;1.72;1.20;;;;;;;15.43;52.82;99534.66;1749064;111;26022;-84
2022/05/29 01:36:34;;;;;;;2.45;1.00;;;;;;;15.36;52.90;99539.10;1793662;108;25785;-86
2022/05/29 01:40:14;;;;;;;2.60;0.90;;;;;;;15.34;52.93;99545.66;1819075;106;25515;-86
2022/05/29 01:44:39;;;;;;;3.10;1.17;;;;;;;15.40;52.88;99542.56;1821895;107;25695;-87
2022/05/29 01:48:23;;;;;;;1.90;1.32;;;;;;;15.39;52.82;99550.89;1811735;107;26553;-86
2022/05/29 01:52:34;;;;;;;3.35;1.35;;;;;;;15.35;52.82;99542.17;1819441;107;25927;-85
2022/05/29 01:56:09;;;;;;;2.12;0.98;;;;;;;15.35;52.83;99545.22;1787081;107;25867;-85
2022/05/29 02:00:13;;;;;;;1.60;1.02;;;;;;;15.37;52.82;99543.45;1824985;106;26126;-83
2022/05/29 02:08:03;;;;;;;2.55;1.00;;;;;;;15.37;52.77;99531.64;1768896;110;26075;-84
2022/05/29 02:11:49;;;;;;;1.77;1.15;;;;;;;15.35;52.73;99534.71;1807159;103;25815;-85
2022/05/29 02:15:20;;;;;;;2.35;1.07;;;;;;;15.29;52.76;99532.17;1953163;98;25803;-84
2022/05/29 02:19:36;;;;;;;;;;;;;;;;;;;;;
2022/05/29 02:23:05;;;;;;;1.32;0.90;;;;;;;15.25;52.92;99541.80;2052115;94;26262;-86
2022/05/29 02:27:06;;;;;;;2.50;0.93;;;;;;;15.18;53.01;99541.42;2032866;95;25749;-84
2022/05/29 02:31:07;;;;;;;2.75;1.10;;;;;;;15.19;53.10;99542.33;2026055;96;25870;-84
2022/05/29 02:35:22;;;;;;;4.58;1.47;;;;;;;15.23;53.12;99543.59;2019050;96;26048;-86
2022/05/29 02:39:24;;;;;;;1.25;1.02;;;;;;;15.28;53.08;99535.66;1950213;99;25840;-85
2022/05/29 02:43:19;;;;;;;2.92;1.92;;;;;;;15.25;53.20;99542.25;1934724;100;26202;-86
2022/05/29 02:47:44;;;;;;;3.90;1.25;;;;;;;15.23;53.24;99540.96;1959185;99;25774;-86
2022/05/29 02:51:40;;;;;;;2.30;1.15;;;;;;;15.24;53.25;99539.20;1972206;98;26030;-85
2022/05/29 02:55:04;;;;;;;3.85;1.40;;;;;;;15.24;53.31;99541.38;1986285;98;25783;-85
2022/05/29 02:58:58;;;;;;;3.15;1.30;;;;;;;15.21;53.36;99537.47;1986881;96;25850;-85
2022/05/29 03:02:54;;;;;;;6.20;1.52;;;;;;;15.27;53.36;99544.42;1988738;98;25982;-85
2022/05/29 03:06:44;;;;;;;1.40;0.98;;;;;;;15.22;53.44;99550.15;2022989;94;25817;-85
2022/05/29 03:14:19;;;;;;;3.62;1.35;;;;;;;15.17;53.64;99558.52;1971152;99;26160;-86
2022/05/29 03:18:24;;;;;;;1.80;0.85;;;;;;;15.17;53.70;99560.70;1945206;101;26647;-86
2022/05/29 03:22:43;;;;;;;2.67;1.07;;;;;;;15.20;53.72;99564.62;1949640;101;26135;-86
2022/05/29 03:26:34;;;;;;;3.03;1.47;;;;;;;15.24;53.74;99569.40;1977866;98;25777;-85
2022/05/29 03:30:39;;;;;;;1.77;1.27;;;;;;;15.27;53.68;99574.63;1960391;99;25988;-87
2022/05/29 03:33:53;;;;;;;3.37;1.22;;;;;;;15.27;53.72;99573.31;1987323;97;25777;-87
2022/05/29 03:37:35;;;;;;;5.12;1.37;;;;;;;15.31;53.66;99571.08;1935046;100;26157;-85
2022/05/29 03:41:29;;;;;;;4.25;1.20;;;;;;;15.33;53.72;99570.64;1927724;101;25806;-84
2022/05/29 03:44:57;;;;;;;2.00;1.15;;;;;;;15.39;53.63;99566.66;1866820;103;25788;-87
2022/05/29 03:48:18;;;;;;;2.08;1.30;;;;;;;15.46;53.57;99560.45;1903967;102;25829;-85
2022/05/29 03:51:45;;;;;;;2.50;1.50;;;;;;;15.50;53.51;99559.98;1910831;99;31496;-86
2022/05/29 03:55:10;;;;;;;4.50;1.22;;;;;;;15.58;53.39;99564.25;1901694;102;26099;-85
2022/05/29 03:58:36;;;;;;;6.03;1.45;;;;;;;15.65;53.29;99566.83;1917215;99;25856;-86
2022/05/29 04:02:04;;;;;;;7.20;1.67;;;;;;;15.67;53.23;99567.28;1916222;101;26163;-87
2022/05/29 04:05:39;;;;;;;3.47;1.50;;;;;;;15.68;53.18;99579.52;1924578;101;26532;-85
2022/05/29 04:13:13;;;;;;;2.65;1.10;;;;;;;15.79;53.08;99581.63;2037494;96;25793;-86
2022/05/29 04:16:49;;;;;;;4.10;1.00;;;;;;;15.87;52.94;99582.84;2020052;96;25700;-86
2022/05/29 04:20:24;;;;;;;2.30;1.30;;;;;;;15.84;52.91;99587.27;2043620;92;25868;-87
2022/05/29 04:27:35;;;;;;;2.25;1.12;;;;;;;15.84;52.92;99597.78;2133785;90;26277;-84
2022/05/29 04:31:02;;;;;;;2.83;1.47;;;;;;;15.86;52.85;99594.22;2122120;92;25807;-85
2022/05/29 04:35:06;;;;;;;2.12;1.20;;;;;;;15.88;52.83;99600.34;2130426;91;25975;-86
2022/05/29 04:38:45;;;;;;;4.00;1.07;;;;;;;15.89;52.77;99605.16;2121183;90;25860;-85
2022/05/29 04:42:15;;;;;;;4.30;1.75;;;;;;;15.90;52.76;99607.78;2075109;95;25725;-85
2022/05/29 04:45:46;;;;;;;3.10;1.22;;;;;;;15.96;52.67;99610.35;1996105;96;25953;-85
2022/05/29 04:50:11;;;;;;;2.65;1.12;;;;;;;15.99;52.61;99608.98;2045579;95;25808;-85
2022/05/29 04:53:37;;;;;;;4.22;1.22;;;;;;;16.03;52.53;99602.83;2052963;95;26799;-85
2022/05/29 04:57:17;;;;;;;3.02;1.40;;;;;;;16.07;52.45;99607.60;2032512;95;25950;-85
2022/05/29 05:01:26;;;;;;;3.75;1.10;;;;;;;16.09;52.36;99610.20;2050134;96;25830;-85
2022/05/29 05:05:09;;;;;;;3.60;1.10;;;;;;;16.09;52.34;99607.13;2047570;94;25960;-85
2022/05/29 05:08:49;;;;;;;4.45;1.82;;;;;;;16.10;52.37;99611.93;1997356;96;25867;-86
2022/05/29 05:20:00;;;;;;;6.92;1.52;;;;;;;16.26;52.32;99606.48;2077800;93;25810;-86
2022/05/29 05:23:32;;;;;;;2.75;1.17;;;;;;;16.41;52.21;99601.94;2085097;93;26113;-87
2022/05/29 05:27:12;;;;;;;4.33;1.32;;;;;;;16.54;52.09;99606.16;2062210;94;25702;-86
2022/05/29 05:30:40;;;;;;;3.33;1.60;;;;;;;16.63;51.97;99615.22;2036662;96;25893;-86
2022/05/29 05:34:27;;;;;;;2.67;1.42;;;;;;;16.70;51.81;99616.02;2050280;95;25786;-86
2022/05/29 05:42:05;;;;;;;3.65;1.15;;;;;;;16.87;51.68;99617.99;1944286;101;26115;-85
2022/05/29 05:45:35;;;;;;;2.35;1.32;;;;;;;16.97;51.49;99616.10;1930746;100;25710;-85
2022/05/29 05:49:04;;;;;;;4.45;1.32;;;;;;;17.02;51.32;99620.00;1900133;101;25853;-86
2022/05/29 05:52:28;;;;;;;3.15;1.37;;;;;;;17.03;51.22;99624.37;1866739;103;25775;-84
2022/05/29 05:55:54;;;;;;;2.37;1.22;;;;;;;17.05;51.10;99625.23;1897627;103;25859;-86
2022/05/29 05:59:32;;;;;;;2.62;1.10;;;;;;;17.08;51.03;99623.41;1910806;103;25903;-85
2022/05/29 06:03:13;;;;;;;6.08;1.65;;;;;;;17.15;50.97;99636.91;1912898;101;25857;-84
2022/05/29 06:10:06;;;;;;;2.62;1.70;;;;;;;17.32;50.67;99645.01;1852784;104;25838;-85
2022/05/29 06:14:02;;;;;;;5.95;1.27;;;;;;;17.38;50.58;99643.14;1831940;105;26023;-85
2022/05/29 06:18:09;;;;;;;4.10;2.00;;;;;;;17.49;50.45;99641.65;1841980;102;25987;-85
2022/05/29 06:21:56;;;;;;;3.67;1.32;;;;;;;17.57;50.30;99647.65;1840446;101;25846;-86
2022/05/29 06:25:46;;;;;;;4.45;1.47;;;;;;;17.69;50.07;99646.59;1875348;102;25919;-84
2022/05/29 06:29:16;;;;;;;5.28;1.82;;;;;;;17.75;49.86;99655.72;1925150;98;34693;-85
2022/05/29 06:33:10;;;;;;;4.20;2.42;;;;;;;17.87;49.68;99657.28;1923723;101;26237;-85
2022/05/29 06:36:36;;;;;;;3.10;1.27;;;;;;;17.97;49.52;99660.63;1906711;102;25781;-85
2022/05/29 06:40:50;;;;;;;;;;;;;;;;;;;;;
2022/05/29 06:44:15;;;;;;;4.50;1.50;;;;;;;18.11;49.20;99671.34;1862298;102;25905;-84
2022/05/29 06:51:31;;;;;;;2.85;1.37;;;;;;;18.26;48.93;99683.81;1938551;100;25840;-84
2022/05/29 06:55:21;;;;;;;4.78;1.70;;;;;;;18.45;48.69;99674.65;1938079;101;25819;-84
2022/05/29 06:59:01;;;;;;;2.10;1.07;;;;;;;18.59;48.55;99668.63;1967853;100;25832;-86
2022/05/29 07:10:16;;;;;;;4.62;1.62;;;;;;;19.20;47.82;99680.99;1938008;100;25878;-85
2022/05/29 07:14:15;;;;;;;3.33;1.70;;;;;;;19.44;47.73;99677.36;1922959;100;26309;-87
2022/05/29 07:17:49;;;;;;;5.97;0.88;;;;;;;19.68;47.58;99690.05;1908542;100;25829;-85
2022/05/29 07:21:18;;;;;;;4.40;1.30;;;;;;;19.89;47.21;99699.21;1887098;103;26124;-86
2022/05/29 07:25:11;;;;;;;4.85;1.62;;;;;;;19.92;46.87;99701.78;1874343;103;25824;-88
2022/05/29 07:28:55;;;;;;;1.82;1.05;;;;;;;19.99;46.74;99706.46;1881388;99;25941;-85
2022/05/29 07:32:24;;;;;;;2.55;1.07;;;;;;;20.09;46.52;99707.09;1850572;105;26196;-86
2022/05/29 07:35:52;;;;;;;3.50;0.88;;;;;;;20.17;46.29;99703.78;1855072;105;26056;-85
2022/05/29 07:39:27;;;;;;;4.37;1.20;;;;;;;20.28;46.07;99705.25;1851425;105;26406;-87
2022/05/29 07:46:47;;;;;;;3.52;1.25;;;;;;;20.73;45.44;99711.98;1916732;101;26236;-87
2022/05/29 07:50:25;;;;;;;3.33;1.90;;;;;;;20.73;45.19;99713.31;1930811;100;25836;-86
2022/05/29 07:53:46;;;;;;;2.83;1.42;;;;;;;20.85;45.26;99722.20;1878268;105;25875;-86
2022/05/29 07:57:28;;;;;;;3.72;1.35;;;;;;;21.14;45.04;99714.73;1857188;104;25738;-87
2022/05/29 08:01:01;;;;;;;2.55;1.07;;;;;;;21.52;44.79;99725.09;1858243;105;25703;-87
2022/05/29 08:04:27;;;;;;;3.15;1.17;;;;;;;21.77;44.27;99734.01;1868685;99;25999;-86
2022/05/29 08:09:00;;;;;;;;;;;;;;;;;;;;;
2022/05/29 08:12:22;;;;;;;11.05;1.62;;;;;;;21.68;43.79;99728.99;1998585;96;26131;-85
2022/05/29 08:16:25;;;;;;;3.12;1.20;;;;;;;21.49;43.83;99743.28;1957126;98;25876;-84
2022/05/29 08:20:30;;;;;;;;;;;;;;;;;;;;;
2022/05/29 08:32:15;;;;;;;7.65;1.47;;;;;;;22.80;43.31;99750.38;1810542;107;25808;-82
2022/05/29 08:35:46;;;;;;;3.02;1.30;;;;;;;23.21;42.83;99734.23;1809203;107;25862;-82
2022/05/29 08:39:12;;;;;;;3.80;1.32;;;;;;;24.03;42.32;99743.38;1810997;107;25814;-78
2022/05/29 08:42:42;;;;;;;9.60;1.87;;;;;;;24.28;40.05;99741.00;1812583;107;26513;-75
2022/05/29 08:46:16;;;;;;;6.62;1.22;;;;;;;23.97;39.55;99739.64;1804639;107;25867;-75
2022/05/29 08:50:05;;;;;;;8.23;1.30;;;;;;;24.13;37.91;99738.97;1775059;110;25870;-76
2022/05/29 08:54:22;;;;;;;7.65;1.75;;;;;;;24.52;38.03;99739.56;1826627;106;25868;-74
2022/05/29 08:58:37;;;;;;;6.55;1.82;;;;;;;24.92;36.34;99735.98;1816284;104;25855;-74
2022/05/29 09:03:01;;;;;;;5.17;1.30;;;;;;;24.96;35.97;99738.42;1883591;100;25779;-76
2022/05/29 09:06:46;;;;;;;4.97;1.52;;;;;;;25.27;35.83;99747.69;1782866;109;25899;-74
2022/05/29 09:10:51;;;;;;;;;;;;;;;;;;;;;
2022/05/29 09:14:47;;;;;;;4.05;1.30;;;;;;;26.49;34.86;99753.30;1723023;113;25917;-76
2022/05/29 09:18:30;;;;;;;3.15;1.40;;;;;;;26.90;33.74;99758.26;1712892;112;26058;-75
2022/05/29 09:22:20;;;;;;;2.45;1.07;;;;;;;27.14;32.58;99752.11;1724846;113;26069;-76
2022/05/29 09:25:46;;;;;;;4.90;1.10;;;;;;;26.79;31.25;99756.17;1782989;107;26216;-77
2022/05/29 09:29:09;;;;;;;6.40;1.55;;;;;;;26.35;30.70;99750.83;1823813;106;26627;-75
2022/05/29 09:37:30;;;;;;;4.58;1.27;;;;;;;25.82;32.37;99742.89;1881543;103;26078;-76
2022/05/29 09:41:20;;;;;;;3.75;1.35;;;;;;;25.67;32.63;99749.80;1932630;100;25881;-75
2022/05/29 09:45:03;;;;;;;2.50;0.95;;;;;;;25.99;32.12;99752.73;1883276;104;25943;-75
2022/05/29 09:53:03;;;;;;;;;;;;;;;;;;;;;
2022/05/29 09:56:37;;;;;;;3.40;1.10;;;;;;;26.95;30.28;99764.24;1998036;96;25959;-73
2022/05/29 10:00:26;;;;;;;3.00;0.95;;;;;;;26.60;29.98;99764.31;1998625;96;25888;-74
2022/05/29 10:04:17;;;;;;;2.77;1.00;;;;;;;26.29;30.29;99763.64;1993844;93;26216;-75
2022/05/29 10:07:53;;;;;;;1.77;1.02;;;;;;;25.99;30.67;99766.09;2010601;97;25824;-74
2022/05/29 10:12:08;;;;;;;;;;;;;;;;;;;;;
2022/05/29 10:15:28;;;;;;;4.25;1.40;;;;;;;25.51;31.37;99760.81;1987606;98;25946;-73
2022/05/29 10:19:44;;;;;;;3.42;1.00;;;;;;;25.24;31.29;99757.17;2001047;98;26692;-73
2022/05/29 10:23:58;;;;;;;2.52;1.10;;;;;;;25.01;30.54;99756.00;1999264;97;25933;-75
2022/05/29 10:27:40;;;;;;;3.15;1.40;;;;;;;23.82;31.78;99769.54;2054553;94;25916;-77
2022/05/29 10:31:37;;;;;;;6.33;1.42;;;;;;;23.29;33.05;99760.55;2091754;94;25672;-75
2022/05/29 10:35:27;;;;;;;7.65;1.42;;;;;;;23.17;33.51;99778.29;2102854;94;25714;-73
2022/05/29 10:39:31;;;;;;;2.65;1.02;;;;;;;22.61;34.20;99770.09;2091226;93;25773;-73
2022/05/29 10:43:01;;;;;;;3.40;1.10;;;;;;;22.09;34.62;99769.22;2086705;94;25780;-74
2022/05/29 10:51:10;;;;;;;2.60;0.80;;;;;;;21.45;35.90;99769.03;2083148;94;25836;-74
2022/05/29 10:55:29;;;;;;;2.58;1.70;;;;;;;21.30;36.02;99760.20;2077812;93;26716;-75
2022/05/29 10:59:29;;;;;;;1.95;1.10;;;;;;;20.97;36.38;99760.74;2018647;96;25776;-74
2022/05/29 11:03:37;;;;;;;5.78;1.32;;;;;;;20.97;37.15;99758.09;2023521;94;25908;-73
2022/05/29 11:07:42;;;;;;;7.22;1.52;;;;;;;21.07;37.24;99742.34;2000996;97;25714;-75
2022/05/29 11:11:47;;;;;;;4.80;1.30;;;;;;;21.31;37.27;99741.19;1969571;99;25837;-74
2022/05/29 11:16:14;;;;;;;6.15;1.52;;;;;;;21.52;37.53;99750.28;1991383;98;25877;-76
2022/05/29 11:20:18;;;;;;;4.15;1.35;;;;;;;21.76;37.61;99752.61;1960075;99;25888;-76
2022/05/29 11:24:38;;;;;;;4.65;1.17;;;;;;;22.07;37.35;99753.79;1972720;99;25816;-74
2022/05/29 11:28:42;;;;;;;4.92;2.00;;;;;;;22.02;37.30;99750.44;2031784;95;25817;-83
2022/05/29 11:32:58;;;;;;;;;;;;;;;;;;;;;
2022/05/29 11:37:23;;;;;;;;;;;;;;;;;;;;;
2022/05/29 11:40:58;;;;;;;7.20;1.45;;;;;;;22.57;36.54;99754.73;2043313;93;25747;-78
2022/05/29 11:45:16;;;;;;;2.17;0.90;;;;;;;22.62;35.67;99754.11;2093238;93;25745;-77
2022/05/29 11:53:36;;;;;;;1.77;0.90;;;;;;;22.63;35.02;99735.05;2039365;96;25735;-77
2022/05/29 11:57:22;;;;;;;3.50;0.93;;;;;;;23.03;34.55;99730.49;2070496;94;25661;-77
2022/05/29 12:01:17;;;;;;;3.47;0.80;;;;;;;23.83;34.99;99727.81;2088878;92;25907;-76
2022/05/29 12:05:20;;;;;;;2.45;0.78;;;;;;;24.16;33.60;99729.53;2064911;94;25794;-76
2022/05/29 12:09:03;;;;;;;2.87;1.17;;;;;;;24.77;33.50;99718.00;2060640;94;25917;-75
2022/05/29 12:12:35;;;;;;;2.40;0.60;;;;;;;25.38;32.36;99720.50;2115202;92;25817;-80
2022/05/29 12:16:38;;;;;;;2.15;0.80;;;;;;;25.49;29.48;99716.86;2168046;91;25792;-81
2022/05/29 12:20:04;;;;;;;4.53;1.98;;;;;;;25.15;31.11;99713.14;2147471;91;26046;-81
2022/05/29 12:23:33;;;;;;;2.25;1.10;;;;;;;25.48;32.33;99707.14;2104060;94;25712;-80
2022/05/29 12:27:14;;;;;;;5.37;0.90;;;;;;;25.90;31.72;99708.64;2158898;86;25689;-80
2022/05/29 12:30:51;;;;;;;3.20;1.35;;;;;;;26.12;32.43;99705.73;2147487;91;26016;-80
2022/05/29 12:34:32;;;;;;;2.70;0.80;;;;;;;26.09;32.40;99710.78;2177660;86;25730;-74
2022/05/29 12:38:40;;;;;;;4.47;1.10;;;;;;;25.93;32.44;99709.83;2123518;92;26621;-88
2022/05/29 12:43:02;;;;;;;8.53;0.93;;;;;;;25.80;32.39;99712.72;2132048;91;26066;-82
2022/05/29 12:47:30;;;;;;;1.98;0.95;;;;;;;25.97;32.71;99716.73;2130540;92;25989;-85
2022/05/29 12:51:48;;;;;;;4.30;1.62;;;;;;;26.22;32.45;99728.36;2128211;91;25851;-85
2022/05/29 12:55:58;;;;;;;2.02;0.82;;;;;;;26.21;31.46;99735.13;2036558;95;25744;-85
2022/05/29 13:00:34;;;;;;;;;;;;;;;;;;;;;
2022/05/29 13:04:37;;;;;;;4.47;1.12;;;;;;;26.29;31.17;99739.15;2013604;97;25752;-85
2022/05/29 13:17:32;;;;;;;1.70;1.10;;;;;;;26.52;32.01;99731.76;1947573;97;25773;-83
2022/05/29 13:21:55;;;;;;;1.92;0.90;;;;;;;26.50;31.95;99733.66;1910493;101;25857;-82
2022/05/29 13:26:07;;;;;;;4.50;0.95;;;;;;;26.40;32.23;99735.06;1928061;98;25405;-83
2022/05/29 13:30:04;;;;;;;2.55;0.90;;;;;;;26.40;32.41;99743.08;1975981;98;25857;-83
2022/05/29 13:33:59;;;;;;;3.60;1.20;;;;;;;26.32;32.17;99742.97;1901629;102;25836;-83
2022/05/29 13:42:22;;;;;;;1.95;0.75;;;;;;;26.48;30.37;99741.75;2458145;78;27532;-83
2022/05/29 13:46:25;;;;;;;1.50;0.60;;;;;;;26.20;30.07;99751.64;2266622;86;25892;-82
2022/05/29 13:50:41;;;;;;;2.45;0.60;;;;;;;25.91;30.05;99757.09;2271167;83;25794;-82
2022/05/29 13:54:42;;;;;;;1.80;0.75;;;;;;;25.81;30.36;99755.34;2242630;87;25742;-84
2022/05/29 14:07:47;;;;;;;;;;;;;;;;;;;;;
2022/05/29 14:11:25;;;;;;;2.17;0.70;;;;;;;25.29;30.14;99745.83;2095185;92;25745;-85
2022/05/29 14:15:35;;;;;;;1.92;0.60;;;;;;;25.25;30.19;99746.92;2007519;97;26017;-84
2022/05/29 14:19:59;;;;;;;2.72;0.60;;;;;;;25.05;29.84;99739.81;1873191;104;25862;-83
2022/05/29 14:29:01;;;;;;;2.67;0.75;;;;;;;24.71;29.83;99723.16;1882885;102;25952;-85
2022/05/29 14:37:44;;;;;;;2.87;0.60;;;;;;;24.86;30.08;99722.45;1898707;102;25822;-83
2022/05/29 14:42:19;;;;;;;1.00;0.50;;;;;;;24.85;30.00;99734.06;1839859;105;26433;-84
2022/05/29 14:51:15;;;;;;;;;;;;;;;;;;;;;
2022/05/29 15:00:00;;;;;;;1.20;0.68;;;;;;;24.32;30.33;99731.08;1852391;104;25938;-86
2022/05/29 15:16:52;;;;;;;1.52;0.70;;;;;;;24.35;31.38;99725.14;1793008;108;25991;-85
2022/05/29 15:24:51;;;;;;;1.22;0.62;;;;;;;24.22;31.42;99719.95;1816144;106;26171;-85
2022/05/29 15:37:09;;;;;;;1.50;0.50;;;;;;;23.77;31.48;99733.80;1845756;100;26021;-84
2022/05/29 15:41:21;;;;;;;5.62;0.95;;;;;;;23.70;31.60;99728.33;1924272;100;26213;-85
2022/05/29 16:08:00;;;;;;;1.62;0.70;;;;;;;23.55;32.54;99715.13;1708520;111;25953;-85
2022/05/29 16:12:13;;;;;;;1.25;0.90;;;;;;;23.59;32.58;99718.57;1747781;111;25942;-85
2022/05/29 16:20:41;;;;;;;;;;;;;;;;;;;;;
2022/05/29 16:25:19;;;;;;;3.50;1.10;;;;;;;23.57;33.06;99711.09;1851342;105;26001;-84
2022/05/29 16:33:11;;;;;;;4.85;0.98;;;;;;;23.23;33.14;99720.42;1758748;110;25918;-85
2022/05/29 16:49:29;;;;;;;5.25;0.90;;;;;;;22.52;33.41;99722.16;1723412;112;26109;-87
2022/05/29 16:58:21;;;;;;;2.50;1.10;;;;;;;22.17;33.52;99719.41;1589664;122;26327;-86
2022/05/29 17:03:00;;;;;;;;;;;;;;;;;;;;;
2022/05/29 17:07:15;;;;;;;1.32;0.85;;;;;;;21.82;33.93;99715.27;1628517;120;26308;-87
2022/05/29 17:11:57;;;;;;;1.72;0.78;;;;;;;21.98;34.16;99712.98;1638362;118;26083;-86
2022/05/29 17:15:15;;;;;;;1.33;0.57;;;;;;;22.05;34.21;99698.58;1636896;119;25815;-84
2022/05/29 17:19:18;;;;;;;1.15;0.68;;;;;;;22.06;34.35;99695.86;1638980;119;26144;-86
2022/05/29 17:23:33;;;;;;;1.32;0.70;;;;;;;22.11;34.43;99701.03;1702746;113;25905;-86
2022/05/29 17:27:42;;;;;;;3.87;0.55;;;;;;;22.13;34.60;99706.66;1776869;105;26521;-86
2022/05/29 17:35:40;;;;;;;0.72;0.45;;;;;;;22.18;34.80;99695.94;1856074;103;25870;-86
2022/05/29 17:39:53;;;;;;;1.70;0.78;;;;;;;22.23;34.89;99699.75;1895770;102;25720;-86
2022/05/29 17:43:27;;;;;;;3.08;0.68;;;;;;;22.25;35.31;99695.27;1861237;103;26514;-85
2022/05/29 17:55:42;;;;;;;1.75;0.90;;;;;;;22.23;35.80;99697.09;1892236;102;25987;-86
2022/05/29 18:07:19;;;;;;;2.15;0.75;;;;;;;22.06;36.44;99703.81;1864406;103;25920;-87
2022/05/29 18:11:40;;;;;;;;;;;;;;;;;;;;;
2022/05/29 18:20:02;;;;;;;1.75;0.98;;;;;;;21.92;36.84;99701.64;1850898;104;26165;-85
2022/05/29 18:23:53;;;;;;;;;;;;;;;;;;;;;
2022/05/29 18:27:23;;;;;;;3.37;0.85;;;;;;;21.81;37.18;99699.81;1786231;108;25831;-86
2022/05/29 18:31:40;;;;;;;2.75;1.20;;;;;;;21.77;37.27;99696.86;1791207;109;25626;-84
2022/05/29 18:35:43;;;;;;;2.00;0.90;;;;;;;21.73;37.36;99693.88;1805913;105;26315;-87
2022/05/29 18:39:43;;;;;;;3.00;1.00;;;;;;;21.68;37.48;99702.47;1871355;103;26042;-85
2022/05/29 18:43:48;;;;;;;3.08;1.22;;;;;;;21.62;37.50;99706.17;1876834;103;25884;-86
2022/05/29 18:47:17;;;;;;;2.55;1.20;;;;;;;21.56;37.57;99706.83;1832151;104;26568;-86
2022/05/29 18:51:09;;;;;;;2.25;0.90;;;;;;;21.52;37.72;99706.52;1806070;104;26026;-87
2022/05/29 18:55:01;;;;;;;1.40;0.90;;;;;;;21.47;37.83;99703.17;1877989;103;25882;-86
2022/05/29 18:58:39;;;;;;;2.75;1.45;;;;;;;21.41;37.98;99710.84;1843835;106;25856;-85
2022/05/29 19:05:55;;;;;;;4.67;1.30;;;;;;;21.25;38.10;99707.77;1846199;105;25852;-88
2022/05/29 19:09:26;;;;;;;3.75;1.40;;;;;;;21.18;38.19;99706.22;1841792;105;25953;-85
2022/05/29 19:12:47;;;;;;;2.40;1.55;;;;;;;21.08;38.35;99700.33;1867361;103;26016;-84
2022/05/29 19:16:32;;;;;;;3.05;1.80;;;;;;;21.03;38.65;99697.43;1868367;104;27113;-85
2022/05/29 19:20:20;;;;;;;2.02;1.10;;;;;;;21.02;38.96;99697.00;1867151;103;25895;-85
2022/05/29 19:27:46;;;;;;;2.85;1.80;;;;;;;21.01;39.71;99689.97;1960346;99;25853;-84
2022/05/29 19:34:53;;;;;;;2.15;1.12;;;;;;;20.95;40.18;99693.20;1914879;100;25710;-86
2022/05/29 19:38:18;;;;;;;;;;;;;;;20.89;40.42;99693.41;1899047;100;25781;-79
2022/05/29 19:41:50;;;;;;;6.00;2.37;;;;;;;20.90;40.59;99688.97;1903675;100;25878;-86
2022/05/29 19:45:32;;;;;;;8.73;1.57;;;;;;;20.88;40.58;99683.70;1954739;99;25869;-83
2022/05/29 19:49:24;;;;;;;5.95;1.87;;;;;;;20.85;40.73;99673.66;1950031;100;25742;-85
2022/05/29 19:53:06;;;;;;;5.45;1.20;;;;;;;20.81;40.74;99675.98;1956565;100;25918;-84
2022/05/29 19:56:59;;;;;;;7.08;1.40;;;;;;;20.74;40.85;99670.86;1940332;100;25857;-84
2022/05/29 20:00:37;;;;;;;5.08;1.55;;;;;;;20.72;40.94;99669.17;1957215;99;25823;-81
2022/05/29 20:04:25;;;;;;;4.85;1.45;;;;;;;20.72;41.09;99666.09;1957740;99;26402;-84
2022/05/29 20:08:14;;;;;;;5.58;1.98;;;;;;;20.70;41.26;99663.93;1956315;99;26035;-83
2022/05/29 20:11:51;;;;;;;3.98;1.40;;;;;;;20.68;41.30;99665.74;1930973;100;25730;-84
2022/05/29 20:15:19;;;;;;;2.08;1.47;;;;;;;20.65;41.35;99674.23;1914466;100;25769;-82
2022/05/29 20:19:13;;;;;;;7.73;1.63;;;;;;;20.56;41.33;99679.36;1913975;100;25929;-82
2022/05/29 20:23:12;;;;;;;4.87;2.45;;;;;;;20.47;41.40;99682.23;1913836;100;25719;-80
2022/05/29 20:27:06;;;;;;;5.65;2.17;;;;;;;20.37;41.43;99678.96;1902178;100;25742;-84
2022/05/29 20:30:41;;;;;;;3.33;2.00;;;;;;;20.29;41.51;99676.99;1933912;100;25964;-83
2022/05/29 20:34:29;;;;;;;;;;;;;;;;;;;;;
2022/05/29 20:38:07;;;;;;;4.25;3.15;;;;;;;19.99;41.75;99679.55;1901037;102;26720;-84
2022/05/29 20:41:53;;;;;;;5.95;2.52;;;;;;;19.67;42.18;99684.31;1882008;102;25838;-82
2022/05/29 20:47:23;;;;;;;5.97;2.55;;;;;;;19.70;42.59;99687.34;1964821;97;25892;-82
2022/05/29 20:49:51;;;;;;;;;;;;;;;;;;;;;
2022/05/29 20:53:37;;;;;;;3.62;2.50;;;;;;;19.83;42.64;99686.59;2086268;91;25835;-78
2022/05/29 20:57:05;;;;;;;6.55;3.62;;;;;;;19.58;42.96;99684.08;2090277;91;25742;-82
2022/05/29 21:00:42;;;;;;;6.42;3.05;;;;;;;19.25;43.37;99680.45;2035216;93;25766;-81
2022/05/29 21:04:46;;;;;;;6.75;3.80;;;;;;;19.03;43.71;99677.87;2045189;95;25885;-82
2022/05/29 21:08:48;;;;;;;4.37;2.87;;;;;;;18.88;44.02;99679.95;2037055;93;26003;-82
2022/05/29 21:12:43;;;;;;;;;;;;;;;;;;;;;
2022/05/29 21:20:45;;;;;;;4.83;3.35;;;;;;;18.68;44.96;99674.64;2016281;95;26475;-89
2022/05/29 21:24:55;;;;;;;6.08;3.20;;;;;;;18.88;44.88;99682.59;2023415;96;25766;-86
2022/05/29 21:28:21;;;;;;;6.70;3.22;;;;;;;19.05;44.67;99681.36;1922693;100;26914;-87
2022/05/29 21:36:46;;;;;;;4.85;3.30;;;;;;;19.24;44.39;99685.78;1962808;99;25952;-86
2022/05/29 21:44:31;;;;;;;7.22;4.00;;;;;;;19.30;44.26;99675.95;1982937;97;26121;-87
2022/05/29 21:48:37;;;;;;;;;;;;;;;;;;;;;
2022/05/29 22:05:09;;;;;;;;;;;;;;;;;;;;;
2022/05/29 22:08:50;;;;;;;4.58;3.60;;;;;;;19.17;44.37;99659.06;1803538;106;25883;-84
2022/05/29 22:12:42;;;;;;;6.97;3.87;;;;;;;19.07;44.51;99651.36;1782659;109;27104;-90
2022/05/29 22:17:03;;;;;;;7.10;3.65;;;;;;;19.05;44.59;99653.62;1764353;110;25834;-93
2022/05/29 22:20:45;;;;;;;4.95;3.55;;;;;;;19.03;44.73;99649.67;1797827;109;25926;-96
2022/05/29 22:30:01;;;;;;;;;;;;;;;;;;;;;
2022/05/29 22:34:11;;;;;;;4.42;3.33;;;;;;;18.98;45.00;99642.31;1803556;106;25985;-91
2022/05/29 22:37:52;;;;;;;4.37;3.47;;;;;;;18.96;45.06;99636.64;1799410;107;25887;-87
2022/05/29 23:34:52;;;;;;;;;;;;;;;;;;;;;
